Meppen Air Base

ETWM · 下萨克森, 德国

使用的METAR站距离机场94 km。
罗盘
风向 的 风向 180° Meppen Air Base 6/24
风: 5 kt, 2 beaufort

3 kt

4 kt
改变
0 ft 1.000 2.000 3.000 4.000 5.000
Cloud Cloud Cloud Cloud Cloud Cloud
BKN 1.200
METAR ETNT 281920Z 18005KT 9000 BKN012 06/05 Q1018 BLACKGRN

METAR Meppen Air Base - ETWM

Meppen Air Base是,德国中的小机场。 该机场位于纬度52,72322和经度7,32652。 该机场有一条跑道: 6/24. 本场的ICAO机场代码为ETWM。 机场在Bremen FIR中。

该航空气象观测是针对Wittmundhafen Air Base在2024年2月28日 20:20, 当地时间进行的。

机场观察

风向为180°,速度为5 kt。

可见度为9 km。

有碎云在1.200 ft的高度。 破损或更高的上限为1.200 ft。

温度为6 °C,阵风为3 °C。 露点为5 °C,相对湿度为93%。 海平面上的气压为1018 hPa (QNH)。

白天

今天,太阳从07:20升起,在18:06降落。 这适用于Meppen Air Base,世界夏令时可能有所不同。 当地时间与世界标准时间之间的时差为+1 小时。 当前,没有夏令时有效。

公司介绍

我们没有关于这个机场的公司信息。

体会

到Vliegles.nl去找飞行课程,跳伞和其他飞行体验。 浏览页面,了解Meppen Air Base附近所有可用的活动。 你也可以使用搜索功能来寻找你所在地附近的特定飞行课程、跳伞或其他飞行体验。

跑道

Id 标题 侧风 逆风 侧风 %
6/24 056°-236° 4 kt 3 kt 83 %

逆风成分最大的方向会被突出显示,并用于横风计算。 这并不一定意味着这个方向在使用。

乌云

1.200 ft BKN 碎云

温度 & 天气

温度 6 °C
露点 5 °C
相对湿度 93%
风寒 3 °C
Kp-index 1 (0-9)

白天

日出
07:20 (10:31)
中午
12:41
日落
18:03

小工具

你想在你的网站上有一个关于Meppen Air Base的当前航空天气(METAR)的小部件吗?

显示HTML代码
?>